Time;durP1;ratioP1;P1;durP2;ratioP2;P2;SDS_P1;SDS_P2;PMS_P1;PMS_P2;Temp;Humidity;BMP_temperature;BMP_pressure;BME280_temperature;BME280_humidity;BME280_pressure;Samples;Min_cycle;Max_cycle;Signal;HPM_P1;HPM_P2
2022/09/26 00:00:56;;;;;;;25.90;12.40;;;;;;;12.27;82.36;99509.36;106576;1279;24295;-80
2022/09/26 00:03:31;;;;;;;25.30;13.10;;;;;;;12.22;81.97;99504.42;107004;1278;23931;-80
2022/09/26 00:06:04;;;;;;;23.50;12.30;;;;;;;12.16;82.17;99500.00;106531;1278;24088;-79
2022/09/26 00:08:39;;;;;;;25.00;13.50;;;;;;;12.12;82.28;99494.29;106324;1279;22558;-79
2022/09/26 00:11:12;;;;;;;27.40;14.00;;;;;;;12.08;82.09;99492.52;105943;1278;22728;-80
2022/09/26 00:13:44;;;;;;;23.10;13.00;;;;;;;12.04;82.11;99487.67;106662;1279;22551;-80
2022/09/26 00:16:16;;;;;;;26.00;12.30;;;;;;;12.01;82.15;99486.81;106609;1278;26571;-79
2022/09/26 00:18:51;;;;;;;26.80;12.20;;;;;;;11.95;82.09;99481.92;106238;1279;22563;-80
2022/09/26 00:21:23;;;;;;;23.20;12.60;;;;;;;11.89;82.21;99478.45;106311;1279;22674;-79
2022/09/26 00:23:56;;;;;;;25.10;12.80;;;;;;;11.84;81.98;99480.23;106635;1279;24359;-80
2022/09/26 00:26:29;;;;;;;26.50;13.30;;;;;;;11.79;81.80;99480.58;106821;1279;24005;-77
2022/09/26 00:29:03;;;;;;;25.80;13.60;;;;;;;11.69;81.65;99476.27;106652;1279;25976;-78
2022/09/26 00:31:38;;;;;;;24.70;12.80;;;;;;;11.60;81.91;99474.05;106462;1279;22557;-79
2022/09/26 00:34:10;;;;;;;25.00;13.30;;;;;;;11.57;81.83;99477.33;106122;1278;24359;-79
2022/09/26 00:36:41;;;;;;;23.40;12.90;;;;;;;11.53;81.80;99474.69;106361;1279;24365;-79
2022/09/26 00:39:13;;;;;;;27.20;12.20;;;;;;;11.51;81.76;99473.52;106365;1278;22541;-78
2022/09/26 00:41:45;;;;;;;26.20;12.00;;;;;;;11.47;81.56;99474.45;106195;1279;26527;-77
2022/09/26 00:44:49;;;;;;;27.40;13.50;;;;;;;11.44;81.66;99474.24;106476;1279;26767;-80
2022/09/26 00:47:29;;;;;;;26.10;13.10;;;;;;;11.36;81.69;99467.15;105621;1284;25312;-79
2022/09/26 00:50:04;;;;;;;25.00;13.00;;;;;;;11.31;81.82;99470.85;105928;1284;22662;-80
2022/09/26 00:52:39;;;;;;;24.00;13.00;;;;;;;11.27;81.77;99465.61;105796;1284;25375;-80
2022/09/26 00:55:17;;;;;;;25.30;12.80;;;;;;;11.21;81.89;99464.16;106429;1284;23164;-80
2022/09/26 00:57:52;;;;;;;25.70;13.00;;;;;;;11.14;81.92;99463.11;106064;1284;24029;-79
2022/09/26 01:00:24;;;;;;;26.40;13.90;;;;;;;11.08;81.88;99455.88;106078;1284;22580;-80
2022/09/26 01:02:56;;;;;;;25.00;13.10;;;;;;;11.02;81.77;99458.14;105988;1284;26578;-80
2022/09/26 01:05:28;;;;;;;25.20;12.60;;;;;;;10.97;81.98;99459.69;106191;1284;22558;-79
2022/09/26 01:08:00;;;;;;;23.30;12.10;;;;;;;10.92;81.86;99454.17;106400;1284;22693;-80
2022/09/26 01:10:33;;;;;;;21.90;11.70;;;;;;;10.90;81.91;99452.80;105959;1284;22559;-79
2022/09/26 01:13:07;;;;;;;24.20;12.20;;;;;;;10.83;81.86;99446.41;106002;1284;25262;-80
2022/09/26 01:15:38;;;;;;;24.20;12.60;;;;;;;10.78;81.84;99446.23;106308;1284;24352;-80
2022/09/26 01:18:12;;;;;;;24.70;12.40;;;;;;;10.72;81.89;99445.09;105846;1280;22679;-79
2022/09/26 01:20:52;;;;;;;25.30;12.10;;;;;;;10.68;81.87;99449.02;106247;1278;25235;-79
2022/09/26 01:23:56;;;;;;;24.10;12.20;;;;;;;10.64;81.83;99449.20;106749;1278;25363;-80
2022/09/26 01:26:52;;;;;;;22.50;11.30;;;;;;;10.53;81.93;99446.55;106532;1279;22585;-79
2022/09/26 01:30:00;;;;;;;26.70;14.10;;;;;;;10.46;81.87;99449.65;106517;1279;22771;-79
2022/09/26 01:32:49;;;;;;;23.10;11.50;;;;;;;10.38;82.06;99446.34;106128;1279;25381;-79
2022/09/26 01:35:37;;;;;;;24.80;11.80;;;;;;;10.29;82.01;99435.53;106091;1278;22569;-80
2022/09/26 01:38:19;;;;;;;21.90;10.00;;;;;;;10.19;81.75;99438.50;106387;1279;25350;-80
2022/09/26 01:41:04;;;;;;;23.60;10.30;;;;;;;10.08;81.86;99428.69;106359;1278;22630;-81
2022/09/26 01:43:41;;;;;;;17.60;7.90;;;;;;;10.00;81.99;99427.52;105946;1278;26630;-79
2022/09/26 01:46:24;;;;;;;16.70;8.90;;;;;;;9.93;82.35;99426.89;106214;1279;22544;-81
2022/09/26 01:49:06;;;;;;;19.50;8.10;;;;;;;9.88;82.23;99424.37;106187;1278;23996;-79
2022/09/26 01:51:43;;;;;;;18.70;8.20;;;;;;;9.77;81.92;99415.05;106263;1279;22502;-79
2022/09/26 01:54:17;;;;;;;17.00;7.00;;;;;;;9.69;81.91;99412.40;106322;1278;22535;-79
2022/09/26 01:56:51;;;;;;;17.50;8.10;;;;;;;9.62;82.22;99415.77;106130;1278;22675;-79
2022/09/26 01:59:27;;;;;;;18.10;8.10;;;;;;;9.59;82.21;99410.33;106333;1279;25733;-80
2022/09/26 02:02:03;;;;;;;15.20;6.70;;;;;;;9.54;82.07;99413.22;106382;1278;22479;-79
2022/09/26 02:04:38;;;;;;;16.00;7.20;;;;;;;9.47;82.07;99414.00;106050;1279;22848;-79
2022/09/26 02:07:18;;;;;;;16.80;7.70;;;;;;;9.42;82.18;99413.14;105988;1279;24761;-79
2022/09/26 02:09:58;;;;;;;18.30;8.10;;;;;;;9.36;82.20;99412.48;106372;1279;22492;-79
2022/09/26 02:12:35;;;;;;;16.60;7.20;;;;;;;9.30;82.12;99409.92;106250;1279;22863;-79
2022/09/26 02:15:13;;;;;;;16.70;7.10;;;;;;;9.28;82.25;99408.28;106227;1278;22692;-79
2022/09/26 02:17:47;;;;;;;15.70;6.80;;;;;;;9.26;82.24;99405.98;106088;1279;23070;-79
2022/09/26 02:20:24;;;;;;;15.90;7.20;;;;;;;9.23;82.18;99402.46;106426;1278;24208;-79
2022/09/26 02:22:56;;;;;;;17.40;8.20;;;;;;;9.20;82.18;99402.11;106052;1278;26018;-80
2022/09/26 02:25:28;;;;;;;19.40;8.20;;;;;;;9.16;82.25;99398.28;106004;1279;22887;-78
2022/09/26 02:27:59;;;;;;;18.90;9.50;;;;;;;9.12;82.68;99395.10;106062;1279;22764;-78
2022/09/26 02:30:30;;;;;;;22.80;10.70;;;;;;;9.11;82.76;99392.14;106050;1279;22535;-79
2022/09/26 02:33:01;;;;;;;25.10;12.80;;;;;;;9.10;83.08;99391.63;106021;1279;22849;-80
2022/09/26 02:38:22;;;;;;;27.00;12.50;;;;;;;9.05;83.32;99397.85;106027;1279;25277;-78
2022/09/26 02:41:00;;;;;;;27.60;14.10;;;;;;;9.03;83.40;99401.07;106029;1279;22574;-78
2022/09/26 02:43:50;;;;;;;25.80;13.00;;;;;;;9.01;83.63;99397.25;105971;1279;22511;-80
2022/09/26 02:46:38;;;;;;;32.50;14.80;;;;;;;9.02;83.84;99395.29;106293;1279;24101;-79
2022/09/26 02:49:21;;;;;;;25.20;13.70;;;;;;;9.02;83.96;99389.42;106129;1278;25397;-78
2022/09/26 02:52:15;;;;;;;26.90;12.90;;;;;;;9.01;84.20;99388.59;105926;1279;23082;-79
2022/09/26 02:54:57;;;;;;;26.70;13.60;;;;;;;9.02;84.47;99385.58;106037;1279;22697;-79
2022/09/26 02:57:36;;;;;;;26.70;14.50;;;;;;;9.03;84.75;99383.70;105984;1279;24269;-79
2022/09/26 03:00:12;;;;;;;28.40;13.80;;;;;;;9.04;84.96;99383.31;106078;1279;22547;-79
2022/09/26 03:02:50;;;;;;;26.20;13.90;;;;;;;9.06;85.12;99381.31;106093;1279;22511;-79
2022/09/26 03:05:25;;;;;;;25.50;12.10;;;;;;;9.08;85.26;99379.50;105962;1279;22646;-79
2022/09/26 03:08:01;;;;;;;29.30;14.30;;;;;;;9.10;85.29;99382.23;106067;1279;25364;-79
2022/09/26 03:10:34;;;;;;;23.90;11.60;;;;;;;9.12;85.39;99385.22;105954;1279;22548;-79
2022/09/26 03:13:10;;;;;;;24.70;12.90;;;;;;;9.15;85.60;99387.43;106130;1281;26499;-78
2022/09/26 03:15:45;;;;;;;22.60;11.90;;;;;;;9.16;85.98;99386.23;105912;1278;25257;-79
2022/09/26 03:18:19;;;;;;;23.40;12.50;;;;;;;9.15;85.88;99384.30;105955;1279;26655;-79
2022/09/26 03:20:52;;;;;;;26.80;12.70;;;;;;;9.14;86.02;99378.87;106028;1279;22570;-78
2022/09/26 03:23:25;;;;;;;22.20;11.20;;;;;;;9.12;85.69;99378.48;106010;1278;23045;-78
2022/09/26 03:26:03;;;;;;;22.10;11.20;;;;;;;9.10;85.49;99377.51;106267;1279;23254;-79
2022/09/26 03:28:34;;;;;;;24.40;11.90;;;;;;;9.08;85.38;99372.92;105988;1279;24240;-80
2022/09/26 03:31:06;;;;;;;24.20;11.10;;;;;;;9.05;85.37;99365.55;106372;1278;25606;-79
2022/09/26 03:33:39;;;;;;;22.50;10.90;;;;;;;9.00;85.18;99365.10;105954;1278;25254;-78
2022/09/26 03:36:10;;;;;;;22.70;10.60;;;;;;;8.96;85.14;99367.42;106380;1279;22709;-79
2022/09/26 03:38:41;;;;;;;22.20;10.90;;;;;;;8.91;84.92;99363.98;105987;1279;25372;-79
2022/09/26 03:41:12;;;;;;;23.90;11.20;;;;;;;8.88;85.17;99365.02;105982;1279;25259;-79
2022/09/26 03:43:43;;;;;;;23.50;10.80;;;;;;;8.83;85.17;99366.74;106229;1279;22543;-80
2022/09/26 03:46:15;;;;;;;23.70;11.90;;;;;;;8.81;85.27;99366.55;106794;1279;23326;-79
2022/09/26 03:48:46;;;;;;;22.40;11.00;;;;;;;8.80;85.30;99360.57;106107;1279;22876;-79
2022/09/26 03:51:17;;;;;;;21.40;11.00;;;;;;;8.78;85.17;99357.11;105951;1279;22538;-79
2022/09/26 03:53:49;;;;;;;22.50;10.10;;;;;;;8.75;85.17;99353.79;106077;1281;24388;-80
2022/09/26 03:56:21;;;;;;;22.60;10.90;;;;;;;8.73;85.17;99352.48;106776;1279;25257;-80
2022/09/26 03:58:53;;;;;;;22.30;10.90;;;;;;;8.70;85.22;99351.04;106049;1279;22911;-79
2022/09/26 04:01:25;;;;;;;20.70;9.70;;;;;;;8.66;85.30;99351.85;105930;1281;22711;-78
2022/09/26 04:03:58;;;;;;;20.90;10.90;;;;;;;8.64;85.28;99348.67;105988;1279;24280;-79
2022/09/26 04:06:30;;;;;;;24.80;10.40;;;;;;;8.61;85.33;99346.92;105986;1281;25257;-79
2022/09/26 04:09:00;;;;;;;23.20;11.00;;;;;;;8.59;85.35;99347.26;106332;1279;25374;-79
2022/09/26 04:11:31;;;;;;;21.00;10.20;;;;;;;8.58;85.44;99341.93;106178;1279;24242;-80
2022/09/26 04:14:03;;;;;;;20.80;10.50;;;;;;;8.58;85.50;99337.12;105990;1279;25382;-79
2022/09/26 04:16:35;;;;;;;26.90;12.80;;;;;;;8.56;85.44;99338.81;106027;1281;22539;-79
2022/09/26 04:19:06;;;;;;;25.80;11.70;;;;;;;8.51;85.51;99336.79;105990;1279;22543;-79
2022/09/26 04:21:39;;;;;;;22.60;10.80;;;;;;;8.49;85.81;99334.33;106036;1279;24258;-80
2022/09/26 04:24:14;;;;;;;25.20;11.10;;;;;;;8.47;85.75;99331.16;106636;1281;22535;-76
2022/09/26 04:26:46;;;;;;;24.10;11.20;;;;;;;8.45;85.89;99330.17;105848;1279;22540;-76
2022/09/26 04:29:18;;;;;;;27.20;11.30;;;;;;;8.43;85.98;99332.23;105758;1281;25408;-75
2022/09/26 04:31:50;;;;;;;23.10;11.00;;;;;;;8.43;86.03;99329.95;105875;1277;26714;-75
2022/09/26 04:34:23;;;;;;;25.60;10.90;;;;;;;8.42;86.30;99324.64;105813;1281;24446;-75
2022/09/26 04:36:54;;;;;;;23.20;10.90;;;;;;;8.41;86.31;99321.77;105910;1278;22563;-75
2022/09/26 04:39:25;;;;;;;25.10;10.80;;;;;;;8.40;86.39;99316.77;105787;1281;25385;-74
2022/09/26 04:41:57;;;;;;;23.00;11.90;;;;;;;8.40;86.47;99311.26;105875;1281;23534;-75
2022/09/26 04:44:29;;;;;;;22.20;11.20;;;;;;;8.40;86.38;99313.13;105886;1281;22545;-73
2022/09/26 04:47:00;;;;;;;25.50;13.10;;;;;;;8.41;86.60;99313.30;105861;1281;22558;-74
2022/09/26 04:49:31;;;;;;;24.80;13.10;;;;;;;8.40;86.65;99317.00;105801;1279;24439;-72
2022/09/26 04:52:02;;;;;;;25.90;13.50;;;;;;;8.38;86.87;99320.54;105828;1281;22560;-73
2022/09/26 04:54:37;;;;;;;24.50;12.60;;;;;;;8.40;86.83;99322.79;105880;1281;22713;-74
2022/09/26 04:57:08;;;;;;;26.50;13.90;;;;;;;8.40;86.86;99316.11;105865;1281;22555;-73
2022/09/26 04:59:39;;;;;;;25.40;12.60;;;;;;;8.41;86.87;99316.83;105928;1281;22544;-74
2022/09/26 05:02:10;;;;;;;30.30;15.50;;;;;;;8.41;86.93;99319.45;105824;1278;23221;-74
2022/09/26 05:04:41;;;;;;;33.20;17.20;;;;;;;8.40;87.12;99310.05;105993;1279;24236;-74
2022/09/26 05:07:13;;;;;;;31.60;16.40;;;;;;;8.39;87.21;99316.77;105970;1280;22586;-74
2022/09/26 05:09:43;;;;;;;27.90;15.10;;;;;;;8.36;87.51;99316.11;105977;1278;25301;-73
2022/09/26 05:12:16;;;;;;;25.80;13.30;;;;;;;8.35;87.70;99312.81;105898;1279;22620;-73
2022/09/26 05:14:48;;;;;;;31.90;15.00;;;;;;;8.34;88.31;99312.84;105806;1281;22617;-73
2022/09/26 05:17:23;;;;;;;28.40;14.50;;;;;;;8.35;88.35;99312.46;105784;1278;24312;-72
2022/09/26 05:19:54;;;;;;;29.30;15.40;;;;;;;8.38;88.55;99313.25;105815;1279;25338;-73
2022/09/26 05:22:26;;;;;;;26.00;13.80;;;;;;;8.40;88.69;99316.52;105798;1278;24293;-72
2022/09/26 05:27:47;;;;;;;24.60;12.80;;;;;;;8.47;89.14;99317.38;105706;1281;22573;-73
2022/09/26 05:30:18;;;;;;;25.00;13.60;;;;;;;8.53;89.12;99320.02;105796;1279;22766;-73
2022/09/26 05:32:49;;;;;;;28.50;14.80;;;;;;;8.58;89.48;99318.16;105820;1279;24280;-72
2022/09/26 05:35:20;;;;;;;26.50;13.90;;;;;;;8.64;89.69;99317.63;105769;1281;23022;-73
2022/09/26 05:37:57;;;;;;;27.30;13.50;;;;;;;8.70;90.06;99321.98;105742;1281;25340;-73
2022/09/26 05:43:17;;;;;;;31.90;16.00;;;;;;;8.84;90.40;99320.60;105859;1281;24224;-74
2022/09/26 05:45:49;;;;;;;32.00;17.90;;;;;;;8.91;91.02;99315.70;105839;1281;22557;-72
2022/09/26 05:48:21;;;;;;;41.80;18.90;;;;;;;8.99;91.54;99320.30;105850;1279;23114;-74
2022/09/26 05:50:52;;;;;;;35.10;17.80;;;;;;;9.06;91.65;99318.59;105807;1281;25721;-73
2022/09/26 05:53:24;;;;;;;34.20;18.60;;;;;;;9.13;91.77;99315.41;105847;1281;22671;-74
2022/09/26 05:55:55;;;;;;;37.80;19.20;;;;;;;9.19;91.86;99315.48;105802;1281;24379;-73
2022/09/26 05:58:31;;;;;;;33.70;17.50;;;;;;;9.26;92.11;99320.00;105735;1281;24296;-74
2022/09/26 06:01:07;;;;;;;33.50;19.00;;;;;;;9.32;92.36;99320.81;106001;1281;25388;-72
2022/09/26 06:03:42;;;;;;;33.80;19.80;;;;;;;9.38;92.48;99323.41;106021;1281;25443;-73
2022/09/26 06:06:16;;;;;;;37.00;20.50;;;;;;;9.43;92.56;99326.19;105964;1279;25513;-73
2022/09/26 06:08:48;;;;;;;33.90;20.50;;;;;;;9.48;92.80;99323.60;105812;1281;22537;-72
2022/09/26 06:11:21;;;;;;;29.90;17.60;;;;;;;9.53;93.01;99325.52;105861;1281;22688;-72
2022/09/26 06:13:52;;;;;;;32.90;18.40;;;;;;;9.59;92.97;99325.41;105868;1281;24344;-73
2022/09/26 06:16:24;;;;;;;31.00;17.90;;;;;;;9.63;93.06;99328.64;105908;1280;25411;-72
2022/09/26 06:18:55;;;;;;;35.30;18.60;;;;;;;9.68;93.18;99328.98;105905;1281;24851;-72
2022/09/26 06:21:26;;;;;;;33.80;18.70;;;;;;;9.72;93.23;99322.16;105889;1280;22648;-72
2022/09/26 06:23:57;;;;;;;35.20;18.80;;;;;;;9.76;93.17;99324.83;105862;1281;27593;-72
2022/09/26 06:26:28;;;;;;;31.50;18.70;;;;;;;9.81;93.45;99323.80;105788;1281;22539;-72
2022/09/26 06:29:00;;;;;;;32.60;17.80;;;;;;;9.86;93.14;99329.77;105753;1279;25389;-72
2022/09/26 06:31:31;;;;;;;30.90;17.30;;;;;;;9.90;93.10;99332.55;105763;1281;26975;-72
2022/09/26 06:34:04;;;;;;;32.30;17.40;;;;;;;9.95;93.39;99333.69;105679;1279;22657;-72
2022/09/26 06:36:36;;;;;;;31.80;17.60;;;;;;;9.99;93.53;99334.12;105756;1279;24445;-72
2022/09/26 06:39:07;;;;;;;34.00;17.40;;;;;;;10.03;93.72;99332.33;105778;1279;24011;-73
2022/09/26 06:41:37;;;;;;;35.10;18.10;;;;;;;10.07;93.76;99327.27;105776;1279;25541;-72
2022/09/26 06:44:08;;;;;;;39.80;18.70;;;;;;;10.12;93.62;99332.09;105775;1278;24622;-73
2022/09/26 06:46:40;;;;;;;39.40;20.60;;;;;;;10.15;93.74;99331.71;105762;1279;23297;-72
2022/09/26 06:49:11;;;;;;;34.40;18.80;;;;;;;10.19;93.98;99332.24;105812;1278;26341;-72
2022/09/26 06:51:42;;;;;;;36.40;20.00;;;;;;;10.22;94.00;99333.98;105762;1279;22561;-72
2022/09/26 06:54:14;;;;;;;35.50;19.40;;;;;;;10.23;94.24;99333.74;105758;1279;25828;-76
2022/09/26 06:56:45;;;;;;;35.90;18.50;;;;;;;10.25;94.29;99333.30;105735;1279;22581;-74
2022/09/26 06:59:16;;;;;;;37.50;18.30;;;;;;;10.28;94.31;99329.45;105852;1279;22712;-76
2022/09/26 07:01:47;;;;;;;31.40;18.90;;;;;;;10.30;94.40;99332.17;106144;1278;22606;-76
2022/09/26 07:04:26;;;;;;;34.60;18.40;;;;;;;10.33;94.59;99335.83;105827;1279;22550;-76
2022/09/26 07:06:58;;;;;;;29.70;15.80;;;;;;;10.34;94.73;99341.16;105799;1278;22733;-76
2022/09/26 07:09:29;;;;;;;32.70;19.00;;;;;;;10.36;94.89;99341.68;105797;1279;22725;-77
2022/09/26 07:12:01;;;;;;;32.90;15.70;;;;;;;10.38;95.15;99342.10;105836;1279;26512;-75
2022/09/26 07:14:32;;;;;;;35.60;19.70;;;;;;;10.41;95.34;99341.95;105921;1279;22590;-76
2022/09/26 07:17:06;;;;;;;33.50;18.60;;;;;;;10.45;95.46;99340.41;105850;1279;24059;-75
2022/09/26 07:19:37;;;;;;;37.40;18.50;;;;;;;10.50;95.67;99343.98;105952;1278;22621;-75
2022/09/26 07:22:09;;;;;;;30.50;17.20;;;;;;;10.55;95.93;99343.80;105848;1278;24285;-75
2022/09/26 07:24:40;;;;;;;29.10;15.40;;;;;;;10.61;96.14;99344.89;105851;1279;23228;-74
2022/09/26 07:27:11;;;;;;;29.30;17.00;;;;;;;10.64;96.00;99345.27;105835;1279;22577;-75
2022/09/26 07:29:42;;;;;;;33.30;17.00;;;;;;;10.69;96.31;99342.24;105813;1279;22718;-75
2022/09/26 07:32:14;;;;;;;33.50;18.40;;;;;;;10.73;96.59;99340.02;105824;1279;22615;-73
2022/09/26 07:34:46;;;;;;;35.20;19.50;;;;;;;10.79;96.67;99342.38;105841;1279;25404;-74
2022/09/26 07:37:19;;;;;;;32.00;19.30;;;;;;;10.84;96.65;99339.11;105860;1279;22562;-75
2022/09/26 07:39:52;;;;;;;31.60;18.20;;;;;;;10.89;97.05;99331.30;105760;1279;23113;-72
2022/09/26 07:42:24;;;;;;;34.80;18.50;;;;;;;10.95;97.26;99335.88;105799;1279;24268;-74
2022/09/26 07:44:55;;;;;;;33.40;18.60;;;;;;;11.00;97.17;99332.44;105773;1279;24220;-75
2022/09/26 07:50:15;;;;;;;32.20;18.50;;;;;;;11.11;97.60;99322.73;105810;1279;25443;-75
2022/09/26 07:52:51;;;;;;;36.60;19.90;;;;;;;11.18;97.91;99324.31;105732;1281;22632;-76
2022/09/26 07:55:25;;;;;;;36.20;20.30;;;;;;;11.25;97.99;99322.91;105747;1281;22587;-77
2022/09/26 07:57:58;;;;;;;39.50;20.70;;;;;;;11.32;98.10;99324.79;105863;1279;24207;-75
2022/09/26 08:00:30;;;;;;;35.60;20.70;;;;;;;11.36;97.85;99323.58;105804;1279;25389;-75
2022/09/26 08:03:06;;;;;;;35.90;20.70;;;;;;;11.41;97.69;99325.10;105916;1279;24388;-74
2022/09/26 08:05:37;;;;;;;36.20;21.10;;;;;;;11.46;97.93;99326.27;105775;1279;25448;-75
2022/09/26 08:08:08;;;;;;;35.30;20.70;;;;;;;11.47;97.49;99320.73;105814;1279;25377;-73
2022/09/26 08:10:43;;;;;;;37.10;19.50;;;;;;;11.48;97.66;99323.09;105802;1279;22564;-74
2022/09/26 08:13:15;;;;;;;37.80;19.70;;;;;;;11.49;97.63;99322.15;105775;1279;22943;-75
2022/09/26 08:15:47;;;;;;;35.10;21.20;;;;;;;11.51;97.71;99328.58;105800;1279;23483;-74
2022/09/26 08:18:18;;;;;;;36.20;20.70;;;;;;;11.55;97.90;99329.38;105745;1279;24488;-74
2022/09/26 08:20:50;;;;;;;32.60;19.60;;;;;;;11.60;98.12;99331.42;105748;1279;25389;-73
2022/09/26 08:23:21;;;;;;;32.30;18.50;;;;;;;11.64;98.12;99328.06;105809;1279;22591;-74
2022/09/26 08:25:54;;;;;;;34.60;19.90;;;;;;;11.67;97.78;99324.69;105806;1278;22554;-72
2022/09/26 08:28:27;;;;;;;37.30;19.60;;;;;;;11.71;97.92;99330.64;105781;1278;25433;-73
2022/09/26 08:31:04;;;;;;;35.90;19.40;;;;;;;11.76;97.81;99326.83;105802;1279;22637;-73
2022/09/26 08:33:37;;;;;;;32.50;17.80;;;;;;;11.80;97.61;99325.91;105855;1278;23097;-72
2022/09/26 08:36:10;;;;;;;32.10;18.40;;;;;;;11.83;97.34;99320.00;105827;1278;22590;-74
2022/09/26 08:38:42;;;;;;;38.60;21.30;;;;;;;11.87;97.61;99318.83;105779;1279;24266;-72
2022/09/26 08:41:31;;;;;;;30.00;17.40;;;;;;;11.92;97.30;99319.69;105778;1278;22557;-74
2022/09/26 08:44:21;;;;;;;29.30;17.70;;;;;;;11.95;97.18;99318.52;105772;1279;25391;-74
2022/09/26 08:47:00;;;;;;;34.70;18.30;;;;;;;11.99;97.11;99320.95;105796;1278;23500;-73
2022/09/26 08:50:11;;;;;;;32.20;17.60;;;;;;;12.01;97.15;99320.95;105881;1279;22622;-73
2022/09/26 08:52:47;;;;;;;31.40;18.80;;;;;;;12.07;97.24;99317.59;105779;1279;25263;-73
2022/09/26 08:55:24;;;;;;;30.20;18.40;;;;;;;12.09;97.10;99318.39;105809;1279;25248;-72
2022/09/26 08:58:00;;;;;;;33.50;19.60;;;;;;;12.12;96.86;99316.95;105784;1279;24229;-73
2022/09/26 09:00:36;;;;;;;31.90;17.10;;;;;;;12.15;96.96;99315.64;105780;1278;24591;-72
2022/09/26 09:03:18;;;;;;;30.50;17.60;;;;;;;12.17;96.63;99318.02;105750;1278;25853;-73
2022/09/26 09:05:53;;;;;;;35.20;19.80;;;;;;;12.20;97.12;99314.66;105755;1279;25247;-73
2022/09/26 09:08:30;;;;;;;30.80;16.70;;;;;;;12.26;97.28;99312.86;105806;1279;25206;-73
2022/09/26 09:11:10;;;;;;;32.40;18.10;;;;;;;12.28;96.56;99310.82;105760;1279;22602;-73
2022/09/26 09:13:58;;;;;;;38.00;19.10;;;;;;;12.28;96.43;99307.20;106078;1279;24251;-73
2022/09/26 09:16:44;;;;;;;32.70;18.60;;;;;;;12.34;97.03;99307.29;105804;1279;25554;-72
2022/09/26 09:19:26;;;;;;;35.80;18.30;;;;;;;12.41;96.75;99308.24;105769;1279;23462;-73
2022/09/26 09:22:13;;;;;;;31.50;18.40;;;;;;;12.47;96.63;99311.62;105781;1279;22566;-73
2022/09/26 09:24:58;;;;;;;29.50;18.20;;;;;;;12.53;96.60;99312.02;105721;1279;25370;-73
2022/09/26 09:27:42;;;;;;;31.40;17.60;;;;;;;12.59;96.39;99309.39;105736;1278;25251;-73
2022/09/26 09:30:21;;;;;;;33.50;17.30;;;;;;;12.64;96.53;99310.95;105745;1279;23936;-73
2022/09/26 09:32:57;;;;;;;27.10;16.40;;;;;;;12.65;96.08;99311.30;105697;1279;22562;-72
2022/09/26 09:35:37;;;;;;;30.80;16.60;;;;;;;12.70;96.47;99313.83;105970;1279;22580;-73
2022/09/26 09:38:14;;;;;;;34.50;19.60;;;;;;;12.72;96.06;99311.83;105841;1278;22540;-71
2022/09/26 09:40:50;;;;;;;34.80;19.40;;;;;;;12.76;96.14;99314.36;105799;1279;24402;-73
2022/09/26 09:43:27;;;;;;;34.30;19.90;;;;;;;12.79;96.20;99317.51;105771;1279;22595;-73
2022/09/26 09:46:04;;;;;;;37.20;19.70;;;;;;;12.84;96.59;99317.21;105646;1281;26566;-72
2022/09/26 09:48:35;;;;;;;34.00;19.80;;;;;;;12.90;96.29;99316.23;105753;1279;25370;-73
2022/09/26 09:51:19;;;;;;;36.50;20.90;;;;;;;12.92;96.30;99312.50;105761;1279;26685;-73
2022/09/26 09:54:13;;;;;;;36.20;19.50;;;;;;;12.97;96.46;99311.60;105742;1279;22569;-72
2022/09/26 09:56:57;;;;;;;34.80;20.90;;;;;;;13.01;96.21;99312.40;105744;1279;25379;-74
2022/09/26 09:59:48;;;;;;;34.60;20.00;;;;;;;13.05;96.24;99308.62;105869;1279;22542;-73
2022/09/26 10:02:35;;;;;;;32.30;18.70;;;;;;;13.09;96.10;99313.04;105740;1278;25305;-73
2022/09/26 10:05:21;;;;;;;38.80;20.40;;;;;;;13.11;96.03;99315.02;105742;1279;22574;-73
2022/09/26 10:07:57;;;;;;;33.10;20.20;;;;;;;13.13;96.15;99315.72;105809;1278;24457;-73
2022/09/26 10:10:37;;;;;;;38.00;20.80;;;;;;;13.17;95.93;99318.08;105849;1278;22558;-72
2022/09/26 10:13:09;;;;;;;34.50;20.60;;;;;;;13.17;95.78;99318.45;105763;1279;22568;-74
2022/09/26 10:15:49;;;;;;;33.50;19.40;;;;;;;13.18;95.59;99320.32;105789;1279;25411;-72
2022/09/26 10:18:21;;;;;;;33.90;20.20;;;;;;;13.20;95.70;99321.23;105742;1278;22557;-73
2022/09/26 10:20:55;;;;;;;33.30;19.40;;;;;;;13.23;95.79;99317.63;105893;1278;22632;-72
2022/09/26 10:23:32;;;;;;;31.70;18.50;;;;;;;13.29;96.29;99317.00;105942;1279;22544;-73
2022/09/26 10:26:06;;;;;;;31.70;18.20;;;;;;;13.34;95.91;99319.20;105684;1279;25305;-72
2022/09/26 10:28:46;;;;;;;34.70;21.50;;;;;;;13.38;96.11;99316.92;105817;1279;25223;-72
2022/09/26 10:31:28;;;;;;;33.90;20.90;;;;;;;13.43;95.86;99316.02;105834;1279;25448;-73
2022/09/26 10:34:02;;;;;;;37.60;21.50;;;;;;;13.46;95.66;99321.77;105768;1279;26015;-72
2022/09/26 10:36:36;;;;;;;38.90;22.30;;;;;;;13.46;95.25;99319.36;105825;1279;22546;-73
2022/09/26 10:42:18;;;;;;;35.80;20.90;;;;;;;13.39;94.74;99326.34;105815;1279;23225;-73
2022/09/26 10:44:56;;;;;;;33.40;19.40;;;;;;;13.36;94.90;99325.71;103768;1278;2821258;-72
2022/09/26 10:47:30;;;;;;;32.70;19.50;;;;;;;13.34;95.00;99326.08;105821;1278;25572;-73
2022/09/26 10:50:08;;;;;;;29.20;17.00;;;;;;;13.32;94.98;99323.75;105828;1279;24321;-73
2022/09/26 10:52:44;;;;;;;28.40;16.50;;;;;;;13.29;94.72;99321.83;105794;1278;22566;-74
2022/09/26 10:55:24;;;;;;;28.10;14.90;;;;;;;13.27;94.78;99322.50;105755;1278;22557;-73
2022/09/26 10:57:59;;;;;;;26.90;15.50;;;;;;;13.23;94.57;99319.88;105939;1278;24320;-73
2022/09/26 11:00:43;;;;;;;29.50;16.40;;;;;;;13.22;94.70;99318.27;105858;1279;22600;-73
2022/09/26 11:03:16;;;;;;;26.80;16.40;;;;;;;13.20;94.67;99316.29;105819;1278;25706;-73
2022/09/26 11:05:59;;;;;;;28.80;16.20;;;;;;;13.20;94.92;99322.69;105744;1278;22554;-74
2022/09/26 11:08:32;;;;;;;33.90;19.50;;;;;;;13.17;94.58;99323.02;105798;1279;22551;-73
2022/09/26 11:11:07;;;;;;;32.50;19.00;;;;;;;13.10;94.52;99317.37;105835;1279;22565;-73
2022/09/26 11:13:48;;;;;;;34.00;19.70;;;;;;;13.02;94.58;99322.38;105764;1279;22560;-72
2022/09/26 11:16:20;;;;;;;34.00;18.70;;;;;;;12.92;94.38;99318.91;105863;1278;25369;-73
2022/09/26 11:18:57;;;;;;;35.60;20.70;;;;;;;12.83;94.32;99325.17;105829;1278;22890;-72
2022/09/26 11:21:38;;;;;;;38.80;21.90;;;;;;;12.75;94.70;99324.59;105927;1279;25263;-73
2022/09/26 11:24:22;;;;;;;37.60;21.10;;;;;;;12.69;94.51;99321.66;105819;1278;22560;-73
2022/09/26 11:27:05;;;;;;;34.60;19.40;;;;;;;12.67;94.83;99319.73;105911;1278;25494;-73
2022/09/26 11:29:43;;;;;;;33.90;19.80;;;;;;;12.65;95.08;99325.14;106028;1279;22585;-72
2022/09/26 11:32:22;;;;;;;32.60;17.50;;;;;;;12.65;95.22;99320.21;105861;1278;22550;-74
2022/09/26 11:35:01;;;;;;;36.20;20.40;;;;;;;12.68;95.30;99315.67;106021;1279;24184;-74
2022/09/26 11:38:04;;;;;;;32.80;17.40;;;;;;;12.74;95.56;99315.17;105820;1279;22569;-73
2022/09/26 11:41:01;;;;;;;33.10;15.30;;;;;;;12.80;95.38;99314.69;105125;1284;22693;-73
2022/09/26 11:43:48;;;;;;;28.40;15.10;;;;;;;12.78;95.03;99316.84;105065;1284;24328;-73
2022/09/26 11:46:46;;;;;;;31.80;16.70;;;;;;;12.74;95.11;99315.34;105131;1284;22662;-73
2022/09/26 11:49:38;;;;;;;26.70;13.50;;;;;;;12.73;95.04;99315.73;105138;1284;22824;-73
2022/09/26 11:52:28;;;;;;;24.10;12.40;;;;;;;12.67;94.62;99311.90;105160;1284;22601;-74
2022/09/26 11:55:13;;;;;;;21.60;10.40;;;;;;;12.63;94.87;99314.96;105242;1284;22559;-74
2022/09/26 11:57:52;;;;;;;21.60;10.70;;;;;;;12.60;94.92;99305.88;104990;1284;24268;-72
2022/09/26 12:00:26;;;;;;;22.80;11.00;;;;;;;12.59;95.12;99298.50;105204;1284;22790;-72
2022/09/26 12:03:38;;;;;;;20.50;9.70;;;;;;;12.60;95.28;99293.45;105081;1284;22642;-72
2022/09/26 12:06:19;;;;;;;22.20;8.90;;;;;;;12.63;95.39;99292.67;105114;1284;25299;-71